sensor_id;sensor_type;location;lat;lon;timestamp;P1;durP1;ratioP1;P2;durP2;ratioP2
8044;SDS011;4065;48.754;9.982;2022-09-01T00:02:42;36.28;;;31.00;;
8044;SDS011;4065;48.754;9.982;2022-09-01T00:05:45;39.33;;;33.42;;
8044;SDS011;4065;48.754;9.982;2022-09-01T00:08:49;37.65;;;30.50;;
8044;SDS011;4065;48.754;9.982;2022-09-01T00:11:52;40.15;;;32.10;;
8044;SDS011;4065;48.754;9.982;2022-09-01T00:14:54;41.72;;;32.05;;
8044;SDS011;4065;48.754;9.982;2022-09-01T00:17:56;38.47;;;32.58;;
8044;SDS011;4065;48.754;9.982;2022-09-01T00:20:59;36.72;;;30.77;;
8044;SDS011;4065;48.754;9.982;2022-09-01T00:24:00;33.70;;;28.73;;
8044;SDS011;4065;48.754;9.982;2022-09-01T00:27:02;39.35;;;30.17;;
8044;SDS011;4065;48.754;9.982;2022-09-01T00:30:04;39.80;;;30.25;;
8044;SDS011;4065;48.754;9.982;2022-09-01T00:33:07;36.65;;;30.13;;
8044;SDS011;4065;48.754;9.982;2022-09-01T00:36:10;37.97;;;29.30;;
8044;SDS011;4065;48.754;9.982;2022-09-01T00:39:11;33.50;;;29.00;;
8044;SDS011;4065;48.754;9.982;2022-09-01T00:42:13;35.00;;;28.85;;
8044;SDS011;4065;48.754;9.982;2022-09-01T00:45:14;36.25;;;28.40;;
8044;SDS011;4065;48.754;9.982;2022-09-01T00:48:17;35.85;;;29.92;;
8044;SDS011;4065;48.754;9.982;2022-09-01T00:51:22;35.30;;;29.10;;
8044;SDS011;4065;48.754;9.982;2022-09-01T00:54:24;37.47;;;29.58;;
8044;SDS011;4065;48.754;9.982;2022-09-01T00:57:28;32.45;;;27.15;;
8044;SDS011;4065;48.754;9.982;2022-09-01T01:00:31;29.77;;;25.38;;
8044;SDS011;4065;48.754;9.982;2022-09-01T01:03:37;34.90;;;27.45;;
8044;SDS011;4065;48.754;9.982;2022-09-01T01:06:45;33.58;;;27.52;;
8044;SDS011;4065;48.754;9.982;2022-09-01T01:09:57;32.08;;;27.00;;
8044;SDS011;4065;48.754;9.982;2022-09-01T01:12:58;33.00;;;27.35;;
8044;SDS011;4065;48.754;9.982;2022-09-01T01:16:01;34.25;;;27.92;;
8044;SDS011;4065;48.754;9.982;2022-09-01T01:19:15;35.58;;;28.00;;
8044;SDS011;4065;48.754;9.982;2022-09-01T01:22:38;35.63;;;28.45;;
8044;SDS011;4065;48.754;9.982;2022-09-01T01:26:03;39.67;;;29.17;;
8044;SDS011;4065;48.754;9.982;2022-09-01T01:29:05;38.05;;;29.33;;
8044;SDS011;4065;48.754;9.982;2022-09-01T01:32:09;42.90;;;31.42;;
8044;SDS011;4065;48.754;9.982;2022-09-01T01:35:11;51.00;;;32.17;;
8044;SDS011;4065;48.754;9.982;2022-09-01T01:38:15;43.58;;;32.45;;
8044;SDS011;4065;48.754;9.982;2022-09-01T01:41:20;47.20;;;31.58;;
8044;SDS011;4065;48.754;9.982;2022-09-01T01:44:24;48.70;;;33.35;;
8044;SDS011;4065;48.754;9.982;2022-09-01T01:47:27;51.00;;;33.75;;
8044;SDS011;4065;48.754;9.982;2022-09-01T01:50:30;53.35;;;33.30;;
8044;SDS011;4065;48.754;9.982;2022-09-01T01:53:34;54.50;;;33.92;;
8044;SDS011;4065;48.754;9.982;2022-09-01T01:56:38;52.03;;;33.63;;
8044;SDS011;4065;48.754;9.982;2022-09-01T01:59:40;53.72;;;34.88;;
8044;SDS011;4065;48.754;9.982;2022-09-01T02:02:42;50.22;;;33.00;;
8044;SDS011;4065;48.754;9.982;2022-09-01T02:05:51;52.42;;;33.35;;
8044;SDS011;4065;48.754;9.982;2022-09-01T02:08:54;47.72;;;31.80;;
8044;SDS011;4065;48.754;9.982;2022-09-01T02:11:58;49.10;;;32.47;;
8044;SDS011;4065;48.754;9.982;2022-09-01T02:14:59;46.92;;;30.85;;
8044;SDS011;4065;48.754;9.982;2022-09-01T02:18:01;49.95;;;32.92;;
8044;SDS011;4065;48.754;9.982;2022-09-01T02:21:03;47.53;;;32.78;;
8044;SDS011;4065;48.754;9.982;2022-09-01T02:24:10;46.00;;;30.38;;
8044;SDS011;4065;48.754;9.982;2022-09-01T02:27:13;48.78;;;32.00;;
8044;SDS011;4065;48.754;9.982;2022-09-01T02:30:24;46.65;;;30.85;;
8044;SDS011;4065;48.754;9.982;2022-09-01T02:33:26;38.53;;;27.60;;
8044;SDS011;4065;48.754;9.982;2022-09-01T02:36:29;39.30;;;28.35;;
8044;SDS011;4065;48.754;9.982;2022-09-01T02:39:34;36.42;;;26.85;;
8044;SDS011;4065;48.754;9.982;2022-09-01T02:42:37;41.85;;;27.50;;
8044;SDS011;4065;48.754;9.982;2022-09-01T02:45:42;39.05;;;27.73;;
8044;SDS011;4065;48.754;9.982;2022-09-01T02:48:44;33.38;;;25.35;;
8044;SDS011;4065;48.754;9.982;2022-09-01T02:51:51;40.45;;;28.30;;
8044;SDS011;4065;48.754;9.982;2022-09-01T02:54:53;34.55;;;25.42;;
8044;SDS011;4065;48.754;9.982;2022-09-01T02:57:56;38.25;;;27.45;;
8044;SDS011;4065;48.754;9.982;2022-09-01T03:00:58;38.75;;;28.48;;
8044;SDS011;4065;48.754;9.982;2022-09-01T03:04:00;33.65;;;25.08;;
8044;SDS011;4065;48.754;9.982;2022-09-01T03:07:04;38.50;;;26.80;;
8044;SDS011;4065;48.754;9.982;2022-09-01T03:10:06;37.67;;;26.02;;
8044;SDS011;4065;48.754;9.982;2022-09-01T03:13:10;32.08;;;24.88;;
8044;SDS011;4065;48.754;9.982;2022-09-01T03:16:14;35.17;;;24.73;;
8044;SDS011;4065;48.754;9.982;2022-09-01T03:19:16;30.17;;;22.23;;
8044;SDS011;4065;48.754;9.982;2022-09-01T03:22:18;30.65;;;23.08;;
8044;SDS011;4065;48.754;9.982;2022-09-01T03:25:22;32.63;;;23.00;;
8044;SDS011;4065;48.754;9.982;2022-09-01T03:28:25;31.30;;;22.95;;
8044;SDS011;4065;48.754;9.982;2022-09-01T03:31:27;32.03;;;23.77;;
8044;SDS011;4065;48.754;9.982;2022-09-01T03:34:29;33.97;;;24.73;;
8044;SDS011;4065;48.754;9.982;2022-09-01T03:37:33;35.25;;;24.98;;
8044;SDS011;4065;48.754;9.982;2022-09-01T03:40:36;31.92;;;23.75;;
8044;SDS011;4065;48.754;9.982;2022-09-01T03:43:39;36.58;;;26.17;;
8044;SDS011;4065;48.754;9.982;2022-09-01T03:46:41;34.60;;;24.52;;
8044;SDS011;4065;48.754;9.982;2022-09-01T03:49:43;34.33;;;25.50;;
8044;SDS011;4065;48.754;9.982;2022-09-01T03:52:44;33.40;;;25.77;;
8044;SDS011;4065;48.754;9.982;2022-09-01T03:55:48;33.88;;;24.73;;
8044;SDS011;4065;48.754;9.982;2022-09-01T03:58:53;29.33;;;23.20;;
8044;SDS011;4065;48.754;9.982;2022-09-01T04:01:55;35.22;;;25.88;;
8044;SDS011;4065;48.754;9.982;2022-09-01T04:04:57;32.83;;;24.95;;
8044;SDS011;4065;48.754;9.982;2022-09-01T04:08:00;33.67;;;25.73;;
8044;SDS011;4065;48.754;9.982;2022-09-01T04:11:04;32.38;;;24.70;;
8044;SDS011;4065;48.754;9.982;2022-09-01T04:14:14;34.47;;;26.02;;
8044;SDS011;4065;48.754;9.982;2022-09-01T04:17:16;36.22;;;26.42;;
8044;SDS011;4065;48.754;9.982;2022-09-01T04:20:35;35.53;;;27.10;;
8044;SDS011;4065;48.754;9.982;2022-09-01T04:23:47;31.75;;;24.60;;
8044;SDS011;4065;48.754;9.982;2022-09-01T04:26:49;29.52;;;23.88;;
8044;SDS011;4065;48.754;9.982;2022-09-01T04:29:53;30.92;;;24.42;;
8044;SDS011;4065;48.754;9.982;2022-09-01T04:32:56;32.28;;;25.50;;
8044;SDS011;4065;48.754;9.982;2022-09-01T04:35:57;33.40;;;25.33;;
8044;SDS011;4065;48.754;9.982;2022-09-01T04:39:00;35.50;;;26.00;;
8044;SDS011;4065;48.754;9.982;2022-09-01T04:42:07;31.25;;;24.90;;
8044;SDS011;4065;48.754;9.982;2022-09-01T04:45:10;30.60;;;25.00;;
8044;SDS011;4065;48.754;9.982;2022-09-01T04:48:13;30.92;;;25.58;;
8044;SDS011;4065;48.754;9.982;2022-09-01T04:51:14;33.78;;;26.40;;
8044;SDS011;4065;48.754;9.982;2022-09-01T04:54:17;35.38;;;26.45;;
8044;SDS011;4065;48.754;9.982;2022-09-01T04:57:19;38.45;;;28.10;;
8044;SDS011;4065;48.754;9.982;2022-09-01T05:00:23;32.97;;;27.35;;
8044;SDS011;4065;48.754;9.982;2022-09-01T05:03:26;29.38;;;23.90;;
8044;SDS011;4065;48.754;9.982;2022-09-01T05:06:30;34.25;;;25.63;;
8044;SDS011;4065;48.754;9.982;2022-09-01T05:09:38;31.42;;;25.77;;
8044;SDS011;4065;48.754;9.982;2022-09-01T05:12:39;29.90;;;23.52;;
8044;SDS011;4065;48.754;9.982;2022-09-01T05:15:46;28.33;;;23.02;;
8044;SDS011;4065;48.754;9.982;2022-09-01T05:18:48;27.92;;;23.27;;
8044;SDS011;4065;48.754;9.982;2022-09-01T05:21:50;26.00;;;22.05;;
8044;SDS011;4065;48.754;9.982;2022-09-01T05:24:56;26.38;;;22.23;;
8044;SDS011;4065;48.754;9.982;2022-09-01T05:28:02;29.70;;;24.52;;
8044;SDS011;4065;48.754;9.982;2022-09-01T05:31:05;28.30;;;23.77;;
8044;SDS011;4065;48.754;9.982;2022-09-01T05:34:07;27.85;;;23.20;;
8044;SDS011;4065;48.754;9.982;2022-09-01T05:37:10;28.25;;;23.48;;
8044;SDS011;4065;48.754;9.982;2022-09-01T05:40:12;31.77;;;24.48;;
8044;SDS011;4065;48.754;9.982;2022-09-01T05:43:15;30.02;;;24.17;;
8044;SDS011;4065;48.754;9.982;2022-09-01T05:46:18;28.40;;;24.33;;
8044;SDS011;4065;48.754;9.982;2022-09-01T05:49:22;30.17;;;26.20;;
8044;SDS011;4065;48.754;9.982;2022-09-01T05:52:25;31.67;;;26.35;;
8044;SDS011;4065;48.754;9.982;2022-09-01T05:55:26;25.15;;;20.42;;
8044;SDS011;4065;48.754;9.982;2022-09-01T05:58:34;36.67;;;26.95;;
8044;SDS011;4065;48.754;9.982;2022-09-01T06:01:38;34.40;;;24.88;;
8044;SDS011;4065;48.754;9.982;2022-09-01T06:04:40;29.02;;;23.85;;
8044;SDS011;4065;48.754;9.982;2022-09-01T06:07:43;29.60;;;24.67;;
8044;SDS011;4065;48.754;9.982;2022-09-01T06:10:45;26.05;;;22.60;;
8044;SDS011;4065;48.754;9.982;2022-09-01T06:13:49;27.77;;;22.65;;
8044;SDS011;4065;48.754;9.982;2022-09-01T06:16:52;28.50;;;24.85;;
8044;SDS011;4065;48.754;9.982;2022-09-01T06:19:57;27.42;;;22.40;;
8044;SDS011;4065;48.754;9.982;2022-09-01T06:22:58;27.50;;;23.00;;
8044;SDS011;4065;48.754;9.982;2022-09-01T06:26:03;25.52;;;21.25;;
8044;SDS011;4065;48.754;9.982;2022-09-01T06:29:08;26.88;;;21.58;;
8044;SDS011;4065;48.754;9.982;2022-09-01T06:32:15;26.80;;;21.20;;
8044;SDS011;4065;48.754;9.982;2022-09-01T06:35:18;26.73;;;21.75;;
8044;SDS011;4065;48.754;9.982;2022-09-01T06:38:20;23.25;;;20.05;;
8044;SDS011;4065;48.754;9.982;2022-09-01T06:41:24;20.52;;;17.45;;
8044;SDS011;4065;48.754;9.982;2022-09-01T06:44:26;18.35;;;16.52;;
8044;SDS011;4065;48.754;9.982;2022-09-01T06:47:32;21.40;;;18.42;;
8044;SDS011;4065;48.754;9.982;2022-09-01T06:50:34;20.15;;;18.02;;
8044;SDS011;4065;48.754;9.982;2022-09-01T06:53:40;18.08;;;16.17;;
8044;SDS011;4065;48.754;9.982;2022-09-01T06:56:42;17.33;;;15.32;;
8044;SDS011;4065;48.754;9.982;2022-09-01T06:59:45;16.52;;;14.77;;
8044;SDS011;4065;48.754;9.982;2022-09-01T07:02:52;18.48;;;13.05;;
8044;SDS011;4065;48.754;9.982;2022-09-01T07:05:56;60.45;;;16.63;;
8044;SDS011;4065;48.754;9.982;2022-09-01T07:08:58;30.77;;;14.52;;
8044;SDS011;4065;48.754;9.982;2022-09-01T07:12:00;15.32;;;13.75;;
8044;SDS011;4065;48.754;9.982;2022-09-01T07:15:05;16.65;;;14.30;;
8044;SDS011;4065;48.754;9.982;2022-09-01T07:18:08;16.92;;;13.00;;
8044;SDS011;4065;48.754;9.982;2022-09-01T07:21:11;16.58;;;14.85;;
8044;SDS011;4065;48.754;9.982;2022-09-01T07:24:16;15.70;;;14.10;;
8044;SDS011;4065;48.754;9.982;2022-09-01T07:27:19;17.05;;;14.82;;
8044;SDS011;4065;48.754;9.982;2022-09-01T07:30:22;17.52;;;15.48;;
8044;SDS011;4065;48.754;9.982;2022-09-01T07:33:26;15.05;;;13.55;;
8044;SDS011;4065;48.754;9.982;2022-09-01T07:36:29;80.40;;;19.48;;
8044;SDS011;4065;48.754;9.982;2022-09-01T07:39:35;29.88;;;13.25;;
8044;SDS011;4065;48.754;9.982;2022-09-01T07:42:38;24.95;;;12.77;;
8044;SDS011;4065;48.754;9.982;2022-09-01T07:45:42;14.02;;;12.52;;
8044;SDS011;4065;48.754;9.982;2022-09-01T07:48:48;11.77;;;10.52;;
8044;SDS011;4065;48.754;9.982;2022-09-01T07:51:50;11.82;;;10.63;;
8044;SDS011;4065;48.754;9.982;2022-09-01T07:54:52;13.13;;;10.57;;
8044;SDS011;4065;48.754;9.982;2022-09-01T07:57:53;14.35;;;11.38;;
8044;SDS011;4065;48.754;9.982;2022-09-01T08:00:56;14.63;;;12.93;;
8044;SDS011;4065;48.754;9.982;2022-09-01T08:04:02;15.30;;;12.85;;
8044;SDS011;4065;48.754;9.982;2022-09-01T08:07:04;13.45;;;12.05;;
8044;SDS011;4065;48.754;9.982;2022-09-01T08:10:06;14.23;;;12.18;;
8044;SDS011;4065;48.754;9.982;2022-09-01T08:13:09;14.43;;;12.05;;
8044;SDS011;4065;48.754;9.982;2022-09-01T08:16:10;14.50;;;13.05;;
8044;SDS011;4065;48.754;9.982;2022-09-01T08:19:14;14.77;;;13.20;;
8044;SDS011;4065;48.754;9.982;2022-09-01T08:22:17;15.65;;;13.52;;
8044;SDS011;4065;48.754;9.982;2022-09-01T08:25:22;16.65;;;13.88;;
8044;SDS011;4065;48.754;9.982;2022-09-01T08:28:23;14.07;;;12.68;;
8044;SDS011;4065;48.754;9.982;2022-09-01T08:31:28;13.98;;;12.52;;
8044;SDS011;4065;48.754;9.982;2022-09-01T08:34:32;14.25;;;12.15;;
8044;SDS011;4065;48.754;9.982;2022-09-01T08:37:33;13.38;;;12.00;;
8044;SDS011;4065;48.754;9.982;2022-09-01T08:40:35;15.82;;;12.60;;
8044;SDS011;4065;48.754;9.982;2022-09-01T08:43:42;15.10;;;13.55;;
8044;SDS011;4065;48.754;9.982;2022-09-01T08:46:51;13.68;;;12.27;;
8044;SDS011;4065;48.754;9.982;2022-09-01T08:49:57;14.10;;;12.10;;
8044;SDS011;4065;48.754;9.982;2022-09-01T08:52:59;15.48;;;13.43;;
8044;SDS011;4065;48.754;9.982;2022-09-01T08:56:09;13.73;;;12.35;;
8044;SDS011;4065;48.754;9.982;2022-09-01T08:59:11;14.18;;;12.60;;
8044;SDS011;4065;48.754;9.982;2022-09-01T09:02:20;12.82;;;11.45;;
8044;SDS011;4065;48.754;9.982;2022-09-01T09:05:34;15.30;;;13.30;;
8044;SDS011;4065;48.754;9.982;2022-09-01T09:08:54;13.55;;;12.18;;
8044;SDS011;4065;48.754;9.982;2022-09-01T09:12:02;14.65;;;13.18;;
8044;SDS011;4065;48.754;9.982;2022-09-01T09:15:16;14.50;;;13.10;;
8044;SDS011;4065;48.754;9.982;2022-09-01T09:18:26;13.93;;;12.45;;
8044;SDS011;4065;48.754;9.982;2022-09-01T09:21:33;14.20;;;12.85;;
8044;SDS011;4065;48.754;9.982;2022-09-01T09:24:39;14.30;;;12.85;;
8044;SDS011;4065;48.754;9.982;2022-09-01T09:27:49;16.10;;;14.40;;
8044;SDS011;4065;48.754;9.982;2022-09-01T09:34:32;15.15;;;13.68;;
8044;SDS011;4065;48.754;9.982;2022-09-01T09:37:36;15.88;;;12.70;;
8044;SDS011;4065;48.754;9.982;2022-09-01T09:40:37;15.00;;;13.40;;
8044;SDS011;4065;48.754;9.982;2022-09-01T09:43:41;14.20;;;12.85;;
8044;SDS011;4065;48.754;9.982;2022-09-01T09:46:45;14.07;;;12.52;;
8044;SDS011;4065;48.754;9.982;2022-09-01T09:49:47;12.43;;;11.25;;
8044;SDS011;4065;48.754;9.982;2022-09-01T09:52:51;12.18;;;10.98;;
8044;SDS011;4065;48.754;9.982;2022-09-01T09:55:57;17.38;;;10.73;;
8044;SDS011;4065;48.754;9.982;2022-09-01T09:59:00;11.52;;;10.38;;
8044;SDS011;4065;48.754;9.982;2022-09-01T10:02:20;11.77;;;10.57;;
8044;SDS011;4065;48.754;9.982;2022-09-01T10:05:36;11.18;;;10.07;;
8044;SDS011;4065;48.754;9.982;2022-09-01T10:08:42;11.02;;;9.82;;
8044;SDS011;4065;48.754;9.982;2022-09-01T10:11:48;10.68;;;9.45;;
8044;SDS011;4065;48.754;9.982;2022-09-01T10:14:52;11.30;;;10.20;;
8044;SDS011;4065;48.754;9.982;2022-09-01T10:17:57;12.02;;;10.82;;
8044;SDS011;4065;48.754;9.982;2022-09-01T10:21:02;12.38;;;11.13;;
8044;SDS011;4065;48.754;9.982;2022-09-01T10:24:12;12.32;;;11.18;;
8044;SDS011;4065;48.754;9.982;2022-09-01T10:27:19;13.23;;;11.73;;
8044;SDS011;4065;48.754;9.982;2022-09-01T10:30:27;12.30;;;11.13;;
8044;SDS011;4065;48.754;9.982;2022-09-01T10:33:43;11.75;;;10.70;;
8044;SDS011;4065;48.754;9.982;2022-09-01T10:36:45;11.13;;;9.85;;
8044;SDS011;4065;48.754;9.982;2022-09-01T10:43:38;13.48;;;12.18;;
8044;SDS011;4065;48.754;9.982;2022-09-01T10:46:42;11.52;;;10.32;;
8044;SDS011;4065;48.754;9.982;2022-09-01T10:49:57;11.55;;;10.05;;
8044;SDS011;4065;48.754;9.982;2022-09-01T10:53:02;12.02;;;10.75;;
8044;SDS011;4065;48.754;9.982;2022-09-01T10:56:09;10.65;;;9.57;;
8044;SDS011;4065;48.754;9.982;2022-09-01T10:59:23;10.60;;;9.43;;
8044;SDS011;4065;48.754;9.982;2022-09-01T11:02:25;10.40;;;9.45;;
8044;SDS011;4065;48.754;9.982;2022-09-01T11:05:34;11.18;;;10.07;;
8044;SDS011;4065;48.754;9.982;2022-09-01T11:09:02;10.52;;;9.40;;
8044;SDS011;4065;48.754;9.982;2022-09-01T11:12:13;8.60;;;7.85;;
8044;SDS011;4065;48.754;9.982;2022-09-01T11:15:32;9.50;;;7.88;;
8044;SDS011;4065;48.754;9.982;2022-09-01T11:18:35;8.30;;;7.43;;
8044;SDS011;4065;48.754;9.982;2022-09-01T11:21:37;9.18;;;8.07;;
8044;SDS011;4065;48.754;9.982;2022-09-01T11:24:44;8.82;;;7.93;;
8044;SDS011;4065;48.754;9.982;2022-09-01T11:27:56;10.88;;;9.73;;
8044;SDS011;4065;48.754;9.982;2022-09-01T11:31:22;11.10;;;10.02;;
8044;SDS011;4065;48.754;9.982;2022-09-01T11:34:26;11.25;;;10.15;;
8044;SDS011;4065;48.754;9.982;2022-09-01T11:37:29;11.40;;;10.30;;
8044;SDS011;4065;48.754;9.982;2022-09-01T11:40:33;11.52;;;10.52;;
8044;SDS011;4065;48.754;9.982;2022-09-01T11:43:37;12.60;;;11.30;;
8044;SDS011;4065;48.754;9.982;2022-09-01T11:46:39;11.27;;;10.15;;
8044;SDS011;4065;48.754;9.982;2022-09-01T11:49:46;12.38;;;10.38;;
8044;SDS011;4065;48.754;9.982;2022-09-01T11:52:54;12.27;;;10.98;;
8044;SDS011;4065;48.754;9.982;2022-09-01T11:56:10;13.73;;;11.25;;
8044;SDS011;4065;48.754;9.982;2022-09-01T11:59:15;12.30;;;11.10;;
8044;SDS011;4065;48.754;9.982;2022-09-01T12:02:32;11.27;;;10.27;;
8044;SDS011;4065;48.754;9.982;2022-09-01T12:05:35;10.48;;;9.30;;
8044;SDS011;4065;48.754;9.982;2022-09-01T12:08:38;9.40;;;8.52;;
8044;SDS011;4065;48.754;9.982;2022-09-01T12:11:42;10.13;;;9.13;;
8044;SDS011;4065;48.754;9.982;2022-09-01T12:14:55;9.68;;;8.68;;
8044;SDS011;4065;48.754;9.982;2022-09-01T12:18:08;9.60;;;8.55;;
8044;SDS011;4065;48.754;9.982;2022-09-01T12:21:16;11.93;;;8.50;;
8044;SDS011;4065;48.754;9.982;2022-09-01T12:24:23;7.20;;;6.55;;
8044;SDS011;4065;48.754;9.982;2022-09-01T12:27:24;7.10;;;6.10;;
8044;SDS011;4065;48.754;9.982;2022-09-01T12:30:28;7.85;;;5.82;;
8044;SDS011;4065;48.754;9.982;2022-09-01T12:33:30;7.28;;;6.68;;
8044;SDS011;4065;48.754;9.982;2022-09-01T12:36:34;7.45;;;6.55;;
8044;SDS011;4065;48.754;9.982;2022-09-01T12:39:37;8.43;;;7.57;;
8044;SDS011;4065;48.754;9.982;2022-09-01T12:42:39;7.07;;;6.45;;
8044;SDS011;4065;48.754;9.982;2022-09-01T12:45:51;8.02;;;7.05;;
8044;SDS011;4065;48.754;9.982;2022-09-01T12:48:52;6.93;;;6.32;;
8044;SDS011;4065;48.754;9.982;2022-09-01T12:52:16;7.40;;;6.30;;
8044;SDS011;4065;48.754;9.982;2022-09-01T12:55:24;7.40;;;6.60;;
8044;SDS011;4065;48.754;9.982;2022-09-01T12:58:27;6.53;;;5.90;;
8044;SDS011;4065;48.754;9.982;2022-09-01T13:01:34;6.72;;;6.10;;
8044;SDS011;4065;48.754;9.982;2022-09-01T13:04:42;7.43;;;6.60;;
8044;SDS011;4065;48.754;9.982;2022-09-01T13:07:44;6.72;;;6.13;;
8044;SDS011;4065;48.754;9.982;2022-09-01T13:10:46;7.32;;;6.30;;
8044;SDS011;4065;48.754;9.982;2022-09-01T13:13:49;7.00;;;6.40;;
8044;SDS011;4065;48.754;9.982;2022-09-01T13:16:52;7.35;;;6.75;;
8044;SDS011;4065;48.754;9.982;2022-09-01T13:19:53;6.43;;;5.82;;
8044;SDS011;4065;48.754;9.982;2022-09-01T13:22:56;6.50;;;5.80;;
8044;SDS011;4065;48.754;9.982;2022-09-01T13:25:58;8.13;;;6.22;;
8044;SDS011;4065;48.754;9.982;2022-09-01T13:29:03;6.25;;;5.45;;
8044;SDS011;4065;48.754;9.982;2022-09-01T13:32:10;7.45;;;6.70;;
8044;SDS011;4065;48.754;9.982;2022-09-01T13:35:13;6.20;;;5.65;;
8044;SDS011;4065;48.754;9.982;2022-09-01T13:38:16;6.70;;;6.10;;
8044;SDS011;4065;48.754;9.982;2022-09-01T13:41:18;6.95;;;6.25;;
8044;SDS011;4065;48.754;9.982;2022-09-01T13:44:20;6.75;;;6.00;;
8044;SDS011;4065;48.754;9.982;2022-09-01T13:47:24;9.25;;;7.03;;
8044;SDS011;4065;48.754;9.982;2022-09-01T13:50:26;7.15;;;6.45;;
8044;SDS011;4065;48.754;9.982;2022-09-01T13:53:28;6.20;;;5.60;;
8044;SDS011;4065;48.754;9.982;2022-09-01T13:56:30;6.38;;;5.78;;
8044;SDS011;4065;48.754;9.982;2022-09-01T13:59:32;6.43;;;5.82;;
8044;SDS011;4065;48.754;9.982;2022-09-01T14:02:38;6.10;;;5.50;;
8044;SDS011;4065;48.754;9.982;2022-09-01T14:05:42;7.30;;;6.55;;
8044;SDS011;4065;48.754;9.982;2022-09-01T14:08:46;6.80;;;6.05;;
8044;SDS011;4065;48.754;9.982;2022-09-01T14:11:51;8.25;;;6.18;;
8044;SDS011;4065;48.754;9.982;2022-09-01T14:14:53;7.85;;;6.50;;
8044;SDS011;4065;48.754;9.982;2022-09-01T14:17:56;6.65;;;6.05;;
8044;SDS011;4065;48.754;9.982;2022-09-01T14:20:59;6.53;;;5.90;;
8044;SDS011;4065;48.754;9.982;2022-09-01T14:24:01;6.53;;;5.93;;
8044;SDS011;4065;48.754;9.982;2022-09-01T14:27:03;5.30;;;4.80;;
8044;SDS011;4065;48.754;9.982;2022-09-01T14:30:06;6.20;;;5.35;;
8044;SDS011;4065;48.754;9.982;2022-09-01T14:33:11;6.85;;;5.68;;
8044;SDS011;4065;48.754;9.982;2022-09-01T14:36:17;6.18;;;5.40;;
8044;SDS011;4065;48.754;9.982;2022-09-01T14:39:20;6.20;;;5.60;;
8044;SDS011;4065;48.754;9.982;2022-09-01T14:42:22;6.20;;;5.50;;
8044;SDS011;4065;48.754;9.982;2022-09-01T14:45:27;7.22;;;5.95;;
8044;SDS011;4065;48.754;9.982;2022-09-01T14:48:32;6.38;;;5.18;;
8044;SDS011;4065;48.754;9.982;2022-09-01T14:51:34;5.63;;;5.13;;
8044;SDS011;4065;48.754;9.982;2022-09-01T14:54:38;6.18;;;4.78;;
8044;SDS011;4065;48.754;9.982;2022-09-01T14:57:41;5.72;;;5.22;;
8044;SDS011;4065;48.754;9.982;2022-09-01T15:00:43;4.80;;;4.40;;
8044;SDS011;4065;48.754;9.982;2022-09-01T15:03:46;5.97;;;5.38;;
8044;SDS011;4065;48.754;9.982;2022-09-01T15:06:48;6.60;;;5.88;;
8044;SDS011;4065;48.754;9.982;2022-09-01T15:09:50;6.57;;;5.97;;
8044;SDS011;4065;48.754;9.982;2022-09-01T15:12:54;6.72;;;5.40;;
8044;SDS011;4065;48.754;9.982;2022-09-01T15:16:01;6.57;;;4.47;;
8044;SDS011;4065;48.754;9.982;2022-09-01T15:19:07;4.57;;;4.10;;
8044;SDS011;4065;48.754;9.982;2022-09-01T15:22:11;5.25;;;4.75;;
8044;SDS011;4065;48.754;9.982;2022-09-01T15:25:13;5.47;;;4.50;;
8044;SDS011;4065;48.754;9.982;2022-09-01T15:28:15;7.10;;;4.20;;
8044;SDS011;4065;48.754;9.982;2022-09-01T15:31:20;4.40;;;4.00;;
8044;SDS011;4065;48.754;9.982;2022-09-01T15:34:24;4.25;;;3.78;;
8044;SDS011;4065;48.754;9.982;2022-09-01T15:37:26;4.95;;;4.10;;
8044;SDS011;4065;48.754;9.982;2022-09-01T15:40:28;4.18;;;3.75;;
8044;SDS011;4065;48.754;9.982;2022-09-01T15:43:30;4.25;;;3.85;;
8044;SDS011;4065;48.754;9.982;2022-09-01T15:46:32;5.05;;;3.70;;
8044;SDS011;4065;48.754;9.982;2022-09-01T15:49:36;4.90;;;3.60;;
8044;SDS011;4065;48.754;9.982;2022-09-01T15:52:45;3.92;;;3.63;;
8044;SDS011;4065;48.754;9.982;2022-09-01T15:55:49;5.15;;;3.40;;
8044;SDS011;4065;48.754;9.982;2022-09-01T15:58:52;5.40;;;4.15;;
8044;SDS011;4065;48.754;9.982;2022-09-01T16:01:54;4.18;;;3.80;;
8044;SDS011;4065;48.754;9.982;2022-09-01T16:04:58;4.93;;;4.40;;
8044;SDS011;4065;48.754;9.982;2022-09-01T16:08:00;4.63;;;4.22;;
8044;SDS011;4065;48.754;9.982;2022-09-01T16:11:07;4.22;;;3.72;;
8044;SDS011;4065;48.754;9.982;2022-09-01T16:14:12;4.57;;;4.18;;
8044;SDS011;4065;48.754;9.982;2022-09-01T16:17:19;4.97;;;4.57;;
8044;SDS011;4065;48.754;9.982;2022-09-01T16:20:40;6.18;;;4.82;;
8044;SDS011;4065;48.754;9.982;2022-09-01T16:23:50;6.05;;;4.90;;
8044;SDS011;4065;48.754;9.982;2022-09-01T16:26:52;5.43;;;4.93;;
8044;SDS011;4065;48.754;9.982;2022-09-01T16:29:57;4.90;;;4.40;;
8044;SDS011;4065;48.754;9.982;2022-09-01T16:33:02;4.43;;;3.97;;
8044;SDS011;4065;48.754;9.982;2022-09-01T16:36:27;5.03;;;4.63;;
8044;SDS011;4065;48.754;9.982;2022-09-01T16:39:36;5.03;;;4.63;;
8044;SDS011;4065;48.754;9.982;2022-09-01T16:42:42;4.20;;;3.90;;
8044;SDS011;4065;48.754;9.982;2022-09-01T16:45:52;5.10;;;4.70;;
8044;SDS011;4065;48.754;9.982;2022-09-01T16:48:58;5.40;;;4.90;;
8044;SDS011;4065;48.754;9.982;2022-09-01T16:52:08;5.05;;;3.95;;
8044;SDS011;4065;48.754;9.982;2022-09-01T16:55:20;4.18;;;3.78;;
8044;SDS011;4065;48.754;9.982;2022-09-01T16:58:24;6.32;;;4.82;;
8044;SDS011;4065;48.754;9.982;2022-09-01T17:01:34;4.20;;;3.67;;
8044;SDS011;4065;48.754;9.982;2022-09-01T17:04:43;4.75;;;3.80;;
8044;SDS011;4065;48.754;9.982;2022-09-01T17:07:50;4.53;;;4.07;;
8044;SDS011;4065;48.754;9.982;2022-09-01T17:10:54;4.68;;;4.15;;
8044;SDS011;4065;48.754;9.982;2022-09-01T17:13:58;4.00;;;3.70;;
8044;SDS011;4065;48.754;9.982;2022-09-01T17:17:04;7.53;;;3.67;;
8044;SDS011;4065;48.754;9.982;2022-09-01T17:20:08;4.90;;;3.85;;
8044;SDS011;4065;48.754;9.982;2022-09-01T17:23:14;4.15;;;3.78;;
8044;SDS011;4065;48.754;9.982;2022-09-01T17:26:22;4.30;;;3.90;;
8044;SDS011;4065;48.754;9.982;2022-09-01T17:29:27;4.35;;;3.95;;
8044;SDS011;4065;48.754;9.982;2022-09-01T17:36:09;4.63;;;4.00;;
8044;SDS011;4065;48.754;9.982;2022-09-01T17:39:31;3.92;;;3.53;;
8044;SDS011;4065;48.754;9.982;2022-09-01T17:42:40;5.50;;;4.13;;
8044;SDS011;4065;48.754;9.982;2022-09-01T17:45:45;4.35;;;3.95;;
8044;SDS011;4065;48.754;9.982;2022-09-01T17:48:53;6.90;;;3.78;;
8044;SDS011;4065;48.754;9.982;2022-09-01T17:51:59;4.38;;;3.97;;
8044;SDS011;4065;48.754;9.982;2022-09-01T17:55:08;5.03;;;3.55;;
8044;SDS011;4065;48.754;9.982;2022-09-01T17:58:17;6.05;;;4.00;;
8044;SDS011;4065;48.754;9.982;2022-09-01T18:01:27;7.45;;;3.88;;
8044;SDS011;4065;48.754;9.982;2022-09-01T18:04:38;4.60;;;4.20;;
8044;SDS011;4065;48.754;9.982;2022-09-01T18:07:55;6.05;;;4.82;;
8044;SDS011;4065;48.754;9.982;2022-09-01T18:11:09;5.22;;;4.75;;
8044;SDS011;4065;48.754;9.982;2022-09-01T18:14:13;8.02;;;4.82;;
8044;SDS011;4065;48.754;9.982;2022-09-01T18:17:18;6.63;;;5.10;;
8044;SDS011;4065;48.754;9.982;2022-09-01T18:20:24;5.70;;;5.15;;
8044;SDS011;4065;48.754;9.982;2022-09-01T18:23:31;6.32;;;4.97;;
8044;SDS011;4065;48.754;9.982;2022-09-01T18:26:39;5.40;;;4.90;;
8044;SDS011;4065;48.754;9.982;2022-09-01T18:29:42;5.78;;;5.28;;
8044;SDS011;4065;48.754;9.982;2022-09-01T18:32:46;6.35;;;5.75;;
8044;SDS011;4065;48.754;9.982;2022-09-01T18:35:53;6.95;;;6.20;;
8044;SDS011;4065;48.754;9.982;2022-09-01T18:39:08;6.85;;;6.20;;
8044;SDS011;4065;48.754;9.982;2022-09-01T18:42:15;7.15;;;6.45;;
8044;SDS011;4065;48.754;9.982;2022-09-01T18:45:24;7.32;;;6.60;;
8044;SDS011;4065;48.754;9.982;2022-09-01T18:48:32;7.38;;;6.43;;
8044;SDS011;4065;48.754;9.982;2022-09-01T18:51:47;6.80;;;6.20;;
8044;SDS011;4065;48.754;9.982;2022-09-01T18:55:01;6.93;;;5.97;;
8044;SDS011;4065;48.754;9.982;2022-09-01T18:58:07;7.53;;;6.72;;
8044;SDS011;4065;48.754;9.982;2022-09-01T19:01:12;7.05;;;6.38;;